Time;durP1;ratioP1;P1;durP2;ratioP2;P2;SDS_P1;SDS_P2;PMS_P1;PMS_P2;Temp;Humidity;BMP_temperature;BMP_pressure;BME280_temperature;BME280_humidity;BME280_pressure;Samples;Min_cycle;Max_cycle;Signal;HPM_P1;HPM_P2
2022/01/18 00:01:02;;;;;;;19.63;11.02;;;;;;;;;;4994758;28;20072;-66
2022/01/18 00:03:29;;;;;;;17.77;10.25;;;;;;;;;;4994179;28;20025;-66
2022/01/18 00:05:57;;;;;;;18.73;10.00;;;;;;;;;;4996494;28;20025;-65
2022/01/18 00:08:27;;;;;;;16.88;8.40;;;;;;;;;;4997090;28;20042;-66
2022/01/18 00:10:53;;;;;;;15.02;6.95;;;;;;;;;;4998874;28;20125;-66
2022/01/18 00:18:34;;;;;;;14.30;6.10;;;;;;;;;;4998561;28;20046;-65
2022/01/18 00:23:35;;;;;;;13.52;5.82;;;;;;;;;;4991756;28;20745;-66
2022/01/18 00:26:03;;;;;;;12.30;5.50;;;;;;;;;;5006847;28;20125;-67
2022/01/18 00:28:30;;;;;;;15.75;6.35;;;;;;;;;;4999618;28;20777;-65
2022/01/18 00:39:12;;;;;;;19.48;7.80;;;;;;;;;;4996681;28;20041;-64
2022/01/18 00:41:40;;;;;;;18.52;7.40;;;;;;;;;;4996517;28;20048;-65
2022/01/18 00:44:06;;;;;;;18.02;7.18;;;;;;;;;;5002126;28;20217;-66
2022/01/18 00:46:35;;;;;;;20.20;7.63;;;;;;;;;;4998955;28;20032;-66
2022/01/18 00:49:02;;;;;;;16.35;6.40;;;;;;;;;;4997429;28;20056;-66
2022/01/18 00:51:36;;;;;;;16.10;7.00;;;;;;;;;;4995684;28;20796;-65
2022/01/18 00:54:05;;;;;;;12.98;5.35;;;;;;;;;;5000580;28;20053;-66
2022/01/18 00:56:32;;;;;;;11.40;5.05;;;;;;;;;;4995855;28;20033;-66
2022/01/18 00:59:01;;;;;;;11.65;4.85;;;;;;;;;;5002256;28;20087;-66
2022/01/18 01:01:28;;;;;;;10.70;4.63;;;;;;;;;;4996296;28;20527;-66
2022/01/18 01:04:00;;;;;;;13.07;5.20;;;;;;;;;;5000281;28;20091;-65
2022/01/18 01:06:27;;;;;;;11.13;4.75;;;;;;;;;;4997500;28;20129;-66
2022/01/18 01:08:53;;;;;;;13.38;5.95;;;;;;;;;;4999385;28;20033;-66
2022/01/18 01:11:20;;;;;;;11.60;5.30;;;;;;;;;;5001145;28;20049;-65
2022/01/18 01:13:49;;;;;;;12.27;5.18;;;;;;;;;;4999004;28;20034;-65
2022/01/18 01:46:14;;;;;;;9.30;4.00;;;;;;;;;;4987846;28;20639;-66
2022/01/18 01:48:44;;;;;;;9.23;3.70;;;;;;;;;;4986281;28;20041;-66
2022/01/18 01:51:11;;;;;;;10.45;4.43;;;;;;;;;;4986285;28;20042;-66
2022/01/18 01:53:37;;;;;;;10.88;3.78;;;;;;;;;;4982324;28;20104;-66
2022/01/18 01:56:06;;;;;;;9.70;3.80;;;;;;;;;;4984017;28;20034;-66
2022/01/18 01:58:33;;;;;;;8.40;3.35;;;;;;;;;;4940313;28;20507;-66
2022/01/18 02:01:05;;;;;;;9.20;3.60;;;;;;;;;;4940525;28;20038;-67
2022/01/18 02:03:32;;;;;;;8.45;3.10;;;;;;;;;;4932015;28;20042;-66
2022/01/18 02:06:00;;;;;;;9.27;3.25;;;;;;;;;;4937320;28;20062;-66
2022/01/18 02:08:28;;;;;;;8.90;3.45;;;;;;;;;;4941416;28;20043;-66
2022/01/18 02:10:56;;;;;;;8.60;3.30;;;;;;;;;;4946996;28;20043;-66
2022/01/18 02:13:23;;;;;;;9.45;3.30;;;;;;;;;;4940680;28;20027;-66
2022/01/18 02:24:02;;;;;;;8.40;2.90;;;;;;;;;;4990462;28;20048;-66
2022/01/18 02:26:29;;;;;;;7.82;2.83;;;;;;;;;;4981901;28;20092;-65
2022/01/18 02:29:19;;;;;;;7.38;2.70;;;;;;;;;;5004059;28;20061;-65
2022/01/18 02:31:47;;;;;;;8.55;2.92;;;;;;;;;;5008009;28;20037;-67
2022/01/18 02:34:24;;;;;;;7.70;2.65;;;;;;;;;;5004864;28;20484;-65
2022/01/18 02:36:53;;;;;;;7.88;2.80;;;;;;;;;;5002552;28;20490;-65
2022/01/18 02:39:21;;;;;;;8.23;2.70;;;;;;;;;;5003572;28;20053;-66
2022/01/18 02:41:58;;;;;;;7.28;2.78;;;;;;;;;;4999927;28;20148;-65
2022/01/18 02:44:28;;;;;;;7.70;2.58;;;;;;;;;;5001231;28;20412;-65
2022/01/18 02:46:56;;;;;;;7.35;2.72;;;;;;;;;;5006975;28;20039;-65
2022/01/18 02:49:23;;;;;;;8.13;2.67;;;;;;;;;;4997308;28;20583;-65
2022/01/18 02:51:49;;;;;;;9.15;2.80;;;;;;;;;;5001825;28;20036;-65
2022/01/18 02:54:17;;;;;;;7.63;2.60;;;;;;;;;;5004315;28;20108;-65
2022/01/18 02:56:53;;;;;;;9.15;3.15;;;;;;;;;;5002885;28;20560;-66
2022/01/18 03:05:09;;;;;;;10.82;4.45;;;;;;;;;;5005192;28;20152;-64
2022/01/18 03:07:36;;;;;;;10.27;4.28;;;;;;;;;;5000643;28;20061;-65
2022/01/18 03:10:03;;;;;;;11.00;4.22;;;;;;;;;;5000556;28;20049;-64
2022/01/18 03:12:31;;;;;;;10.15;4.45;;;;;;;;;;5003951;28;20034;-65
2022/01/18 03:14:57;;;;;;;11.13;4.20;;;;;;;;;;5004566;28;20057;-66
2022/01/18 03:17:23;;;;;;;;;;;;;;;;;;5002000;28;20033;-65
2022/01/18 03:19:49;;;;;;;9.15;3.70;;;;;;;;;;5003656;28;19971;-65
2022/01/18 03:22:16;;;;;;;9.27;3.50;;;;;;;;;;4999294;28;20116;-65
2022/01/18 03:30:05;;;;;;;9.38;3.58;;;;;;;;;;5003213;28;20065;-65
2022/01/18 03:32:32;;;;;;;8.70;3.00;;;;;;;;;;4997866;28;20127;-66
2022/01/18 03:34:59;;;;;;;7.90;3.00;;;;;;;;;;5000236;28;20108;-65
2022/01/18 03:37:26;;;;;;;7.50;2.80;;;;;;;;;;5000439;28;20114;-65
2022/01/18 03:39:53;;;;;;;8.82;2.72;;;;;;;;;;5007028;28;20601;-65
2022/01/18 03:44:48;;;;;;;7.55;2.30;;;;;;;;;;5008363;28;20699;-65
2022/01/18 03:47:16;;;;;;;8.13;2.55;;;;;;;;;;5001773;28;20053;-65
2022/01/18 03:49:44;;;;;;;6.70;2.30;;;;;;;;;;5005891;28;20021;-66
2022/01/18 03:52:10;;;;;;;6.90;2.50;;;;;;;;;;5004457;28;20599;-65
2022/01/18 03:54:42;;;;;;;6.18;1.90;;;;;;;;;;5003612;28;20510;-66
2022/01/18 03:57:10;;;;;;;6.55;2.17;;;;;;;;;;5005311;28;20546;-65
2022/01/18 03:59:37;;;;;;;6.78;2.40;;;;;;;;;;5005474;28;20533;-65
2022/01/18 04:02:06;;;;;;;5.78;1.98;;;;;;;;;;5008267;28;20088;-65
2022/01/18 04:04:40;;;;;;;6.70;2.10;;;;;;;;;;4988009;28;20041;-65
2022/01/18 04:07:09;;;;;;;6.10;2.03;;;;;;;;;;5006538;28;20502;-64
2022/01/18 04:09:38;;;;;;;5.85;2.00;;;;;;;;;;5004398;28;20050;-65
2022/01/18 04:12:07;;;;;;;7.18;2.20;;;;;;;;;;5004734;28;20226;-67
2022/01/18 04:14:34;;;;;;;6.03;2.08;;;;;;;;;;5002018;28;20060;-67
2022/01/18 04:17:16;;;;;;;5.30;1.80;;;;;;;;;;5007969;28;20098;-65
2022/01/18 04:27:56;;;;;;;5.38;1.70;;;;;;;;;;5008498;28;20187;-64
2022/01/18 04:30:23;;;;;;;4.75;1.42;;;;;;;;;;5002887;28;20211;-64
2022/01/18 04:32:50;;;;;;;5.18;1.70;;;;;;;;;;5007758;28;20129;-64
2022/01/18 04:35:17;;;;;;;5.38;1.83;;;;;;;;;;5005047;28;20092;-64
2022/01/18 04:37:44;;;;;;;5.63;1.77;;;;;;;;;;5004330;28;20030;-65
2022/01/18 04:40:15;;;;;;;6.95;2.20;;;;;;;;;;5007189;28;20137;-64
2022/01/18 04:48:30;;;;;;;6.40;2.03;;;;;;;;;;5004871;28;20137;-64
2022/01/18 04:51:09;;;;;;;6.40;2.08;;;;;;;;;;5008415;28;20064;-65
2022/01/18 04:53:40;;;;;;;6.88;2.15;;;;;;;;;;5005093;28;20144;-65
2022/01/18 04:56:13;;;;;;;5.60;1.90;;;;;;;;;;5007178;28;20484;-64
2022/01/18 04:58:42;;;;;;;6.68;2.00;;;;;;;;;;5003668;28;20041;-65
2022/01/18 05:01:09;;;;;;;8.45;2.10;;;;;;;;;;5004948;28;20061;-65
2022/01/18 05:03:37;;;;;;;6.75;2.20;;;;;;;;;;5003796;28;20098;-64
2022/01/18 05:06:09;;;;;;;7.97;1.90;;;;;;;;;;5006252;28;20041;-64
2022/01/18 05:08:39;;;;;;;8.20;3.00;;;;;;;;;;5002952;28;20034;-64
2022/01/18 05:11:11;;;;;;;7.65;2.63;;;;;;;;;;5005010;28;20053;-64
2022/01/18 05:21:35;;;;;;;6.63;2.10;;;;;;;;;;4998272;28;20139;-64
2022/01/18 05:24:01;;;;;;;6.95;2.20;;;;;;;;;;5002740;28;20036;-64
2022/01/18 05:26:30;;;;;;;6.25;2.13;;;;;;;;;;5004893;28;20056;-64
2022/01/18 05:28:57;;;;;;;6.57;2.08;;;;;;;;;;5003734;28;20136;-66
2022/01/18 05:31:24;;;;;;;7.70;2.40;;;;;;;;;;5003750;28;20026;-64
2022/01/18 05:33:55;;;;;;;7.75;2.50;;;;;;;;;;5007324;28;20021;-64
2022/01/18 05:36:22;;;;;;;7.00;2.13;;;;;;;;;;5001838;28;20040;-67
2022/01/18 05:38:51;;;;;;;6.03;2.00;;;;;;;;;;5004538;28;20488;-65
2022/01/18 05:41:19;;;;;;;7.82;2.50;;;;;;;;;;4998683;28;20049;-66
2022/01/18 05:43:45;;;;;;;8.02;2.30;;;;;;;;;;5004725;28;20029;-64
2022/01/18 05:46:12;;;;;;;6.05;2.15;;;;;;;;;;5004606;28;20026;-64
2022/01/18 05:48:38;;;;;;;6.95;2.35;;;;;;;;;;5004877;28;20233;-65
2022/01/18 05:51:04;;;;;;;8.63;2.78;;;;;;;;;;5011864;28;20068;-65
2022/01/18 05:53:32;;;;;;;7.65;2.65;;;;;;;;;;5001646;28;20085;-65
2022/01/18 05:56:00;;;;;;;7.45;2.50;;;;;;;;;;5004488;28;20021;-65
2022/01/18 05:58:27;;;;;;;7.22;2.58;;;;;;;;;;5005324;28;20029;-65
2022/01/18 06:00:56;;;;;;;7.85;2.50;;;;;;;;;;5005389;28;20117;-67
2022/01/18 06:03:32;;;;;;;8.18;2.70;;;;;;;;;;5007108;28;20034;-65
2022/01/18 06:08:44;;;;;;;8.68;2.63;;;;;;;;;;5002893;28;20064;-65
2022/01/18 06:11:12;;;;;;;8.23;2.70;;;;;;;;;;5007666;28;20499;-66
2022/01/18 06:13:38;;;;;;;7.63;2.45;;;;;;;;;;5005344;28;20025;-66
2022/01/18 06:16:05;;;;;;;8.82;3.13;;;;;;;;;;5003764;28;20051;-65
2022/01/18 06:18:32;;;;;;;9.25;2.97;;;;;;;;;;5003536;28;20044;-66
2022/01/18 06:20:59;;;;;;;8.70;3.10;;;;;;;;;;4985946;28;20749;-66
2022/01/18 06:23:26;;;;;;;8.18;3.08;;;;;;;;;;4998072;28;20026;-66
2022/01/18 06:25:54;;;;;;;10.30;3.97;;;;;;;;;;5001944;28;20220;-67
2022/01/18 06:28:21;;;;;;;9.60;3.40;;;;;;;;;;5000657;28;20038;-66
2022/01/18 06:30:48;;;;;;;10.00;3.78;;;;;;;;;;5004419;28;20060;-66
2022/01/18 06:33:17;;;;;;;10.35;3.90;;;;;;;;;;5000615;28;20029;-63
2022/01/18 06:35:44;;;;;;;10.48;4.10;;;;;;;;;;5002440;28;20029;-65
2022/01/18 06:38:12;;;;;;;12.35;4.68;;;;;;;;;;5004724;28;20029;-66
2022/01/18 06:40:38;;;;;;;11.32;4.60;;;;;;;;;;5002896;28;20041;-65
2022/01/18 06:43:08;;;;;;;10.45;4.20;;;;;;;;;;5007927;28;20037;-65
2022/01/18 06:45:34;;;;;;;9.77;3.38;;;;;;;;;;5001282;28;21219;-67
2022/01/18 06:48:00;;;;;;;;;;;;;;;;;;5002638;28;20028;-65
2022/01/18 06:50:28;;;;;;;8.27;2.65;;;;;;;;;;4998166;28;19917;-65
2022/01/18 06:52:55;;;;;;;6.80;2.67;;;;;;;;;;5005093;28;20033;-65
2022/01/18 06:55:22;;;;;;;9.35;3.42;;;;;;;;;;4997398;28;20030;-64
2022/01/18 06:57:50;;;;;;;9.35;3.70;;;;;;;;;;5001479;28;20030;-64
2022/01/18 07:00:18;;;;;;;10.20;3.92;;;;;;;;;;5000097;28;20045;-65
2022/01/18 07:02:46;;;;;;;9.52;3.72;;;;;;;;;;5001526;28;20780;-65
2022/01/18 07:05:13;;;;;;;8.10;2.88;;;;;;;;;;5002395;28;20132;-64
2022/01/18 07:07:42;;;;;;;8.75;3.00;;;;;;;;;;5005132;28;20113;-64
2022/01/18 07:10:10;;;;;;;7.53;2.63;;;;;;;;;;4998088;28;20058;-65
2022/01/18 07:12:36;;;;;;;9.63;3.10;;;;;;;;;;4997506;28;20141;-65
2022/01/18 07:15:02;;;;;;;;;;;;;;;;;;5004663;28;20142;-64
2022/01/18 07:17:29;;;;;;;8.80;3.05;;;;;;;;;;5002955;28;20807;-65
2022/01/18 07:19:56;;;;;;;8.57;2.92;;;;;;;;;;5004250;28;20042;-65
2022/01/18 07:22:22;;;;;;;9.50;3.55;;;;;;;;;;5000237;28;20326;-65
2022/01/18 07:24:55;;;;;;;9.18;3.58;;;;;;;;;;5001335;28;20033;-65
2022/01/18 07:27:21;;;;;;;10.68;3.65;;;;;;;;;;4997119;28;20040;-65
2022/01/18 07:29:48;;;;;;;9.70;2.97;;;;;;;;;;4998630;28;20041;-65
2022/01/18 07:32:15;;;;;;;10.32;3.38;;;;;;;;;;4997507;28;20029;-64
2022/01/18 07:34:49;;;;;;;9.57;3.38;;;;;;;;;;4998522;28;20024;-65
2022/01/18 07:37:18;;;;;;;7.85;2.50;;;;;;;;;;4994123;28;20061;-65
2022/01/18 07:39:48;;;;;;;8.23;2.63;;;;;;;;;;5000349;28;20061;-65
2022/01/18 07:42:17;;;;;;;11.98;3.38;;;;;;;;;;4997686;28;20025;-65
2022/01/18 07:44:43;;;;;;;11.82;3.85;;;;;;;;;;5001666;28;20040;-66
2022/01/18 07:47:11;;;;;;;10.52;3.97;;;;;;;;;;5001514;28;20039;-66
2022/01/18 07:49:39;;;;;;;9.57;4.07;;;;;;;;;;4997068;28;20727;-66
2022/01/18 07:52:08;;;;;;;8.75;3.30;;;;;;;;;;5001288;28;20140;-66
2022/01/18 07:54:38;;;;;;;8.45;2.90;;;;;;;;;;5000059;28;20033;-65
2022/01/18 07:57:05;;;;;;;8.63;3.03;;;;;;;;;;5001991;28;20445;-65
2022/01/18 07:59:30;;;;;;;;;;;;;;;;;;5001669;28;20018;-66
2022/01/18 08:01:58;;;;;;;8.50;2.70;;;;;;;;;;5005620;28;19913;-65
2022/01/18 08:04:24;;;;;;;7.70;2.90;;;;;;;;;;4982156;28;20084;-65
2022/01/18 08:06:51;;;;;;;8.65;3.55;;;;;;;;;;5004968;28;20844;-65
2022/01/18 08:09:19;;;;;;;13.00;6.90;;;;;;;;;;4998843;28;20041;-66
2022/01/18 08:11:48;;;;;;;16.30;8.10;;;;;;;;;;5000418;28;20037;-65
2022/01/18 08:14:16;;;;;;;14.68;7.95;;;;;;;;;;5002082;28;20032;-66
2022/01/18 08:16:48;;;;;;;15.20;7.85;;;;;;;;;;5004683;28;20025;-66
2022/01/18 08:19:19;;;;;;;13.98;7.50;;;;;;;;;;4996699;28;20042;-66
2022/01/18 08:21:46;;;;;;;13.60;7.32;;;;;;;;;;5005343;28;20137;-66
2022/01/18 08:24:14;;;;;;;12.82;7.80;;;;;;;;;;5007655;28;20048;-66
2022/01/18 08:26:45;;;;;;;15.18;9.48;;;;;;;;;;5010443;28;20040;-66
2022/01/18 08:29:12;;;;;;;12.73;7.22;;;;;;;;;;5006827;28;20029;-66
2022/01/18 08:31:38;;;;;;;;;;;;;;;;;;5007846;28;20025;-66
2022/01/18 08:34:04;;;;;;;10.98;5.03;;;;;;;;;;5006943;28;19927;-66
2022/01/18 08:36:32;;;;;;;10.65;4.85;;;;;;;;;;5003491;28;20143;-66
2022/01/18 08:39:00;;;;;;;10.55;4.22;;;;;;;;;;5008004;28;20025;-66
2022/01/18 08:41:27;;;;;;;9.88;4.38;;;;;;;;;;5005016;28;20544;-66
2022/01/18 08:43:56;;;;;;;9.98;4.68;;;;;;;;;;5002479;28;20017;-66
2022/01/18 08:46:24;;;;;;;10.63;4.93;;;;;;;;;;5002031;28;20065;-66
2022/01/18 08:48:54;;;;;;;12.25;4.97;;;;;;;;;;5008154;28;20164;-67
2022/01/18 08:51:20;;;;;;;10.82;4.82;;;;;;;;;;5002024;28;20041;-67
2022/01/18 08:53:50;;;;;;;11.82;5.68;;;;;;;;;;5007355;28;20041;-67
2022/01/18 08:56:20;;;;;;;12.68;5.55;;;;;;;;;;5005880;28;20033;-65
2022/01/18 08:58:47;;;;;;;12.27;5.10;;;;;;;;;;5008313;28;20511;-67
2022/01/18 09:01:14;;;;;;;11.65;4.72;;;;;;;;;;5007128;28;20072;-67
2022/01/18 09:03:41;;;;;;;11.18;4.78;;;;;;;;;;5007198;28;20033;-65
2022/01/18 09:06:13;;;;;;;13.75;4.72;;;;;;;;;;5006167;28;20828;-67
2022/01/18 09:08:41;;;;;;;18.42;8.75;;;;;;;;;;5001160;28;20040;-66
2022/01/18 09:11:11;;;;;;;20.38;10.23;;;;;;;;;;5004834;28;20041;-66
2022/01/18 09:13:40;;;;;;;14.70;6.90;;;;;;;;;;5005725;28;20065;-66
2022/01/18 09:16:09;;;;;;;;;;;;;;;;;;5006493;28;20040;-66
2022/01/18 09:18:38;;;;;;;14.00;5.13;;;;;;;;;;5000954;28;20505;-66
2022/01/18 09:21:06;;;;;;;11.02;5.38;;;;;;;;;;5000372;28;20068;-67
2022/01/18 09:23:32;;;;;;;10.43;4.35;;;;;;;;;;4988873;28;20029;-68
2022/01/18 09:25:58;;;;;;;;;;;;;;;;;;5005028;28;20017;-66
2022/01/18 09:28:24;;;;;;;9.98;4.25;;;;;;;;;;5002733;28;19913;-67
2022/01/18 09:30:50;;;;;;;;;;;;;;;;;;4989431;28;20053;-67
2022/01/18 09:33:17;;;;;;;9.40;3.10;;;;;;;;;;5001878;28;20742;-65
2022/01/18 09:35:43;;;;;;;9.77;3.55;;;;;;;;;;5000762;28;20026;-67
2022/01/18 09:38:09;;;;;;;;;;;;;;;;;;5007689;28;20067;-66
2022/01/18 09:40:38;;;;;;;7.07;2.60;;;;;;;;;;4998135;28;20011;-67
2022/01/18 09:43:12;;;;;;;8.85;3.42;;;;;;;;;;4999475;28;20038;-67
2022/01/18 09:45:52;;;;;;;8.63;3.20;;;;;;;;;;5000618;28;20056;-67
2022/01/18 09:48:20;;;;;;;9.50;3.50;;;;;;;;;;5001476;28;20628;-69
2022/01/18 09:50:46;;;;;;;8.45;3.30;;;;;;;;;;5005437;28;20033;-69
2022/01/18 09:53:13;;;;;;;9.13;3.15;;;;;;;;;;5002495;28;20551;-66
2022/01/18 09:55:41;;;;;;;8.88;3.25;;;;;;;;;;5002598;28;20466;-67
2022/01/18 09:58:09;;;;;;;8.77;3.10;;;;;;;;;;4990103;28;20040;-68
2022/01/18 10:00:37;;;;;;;9.15;3.63;;;;;;;;;;5000085;28;20037;-67
2022/01/18 10:03:08;;;;;;;8.98;3.58;;;;;;;;;;5003781;28;20206;-67
2022/01/18 10:05:35;;;;;;;8.30;3.55;;;;;;;;;;5002314;28;20041;-67
2022/01/18 10:08:06;;;;;;;9.63;4.25;;;;;;;;;;4999034;28;20115;-66
2022/01/18 10:10:37;;;;;;;8.15;3.47;;;;;;;;;;4995355;28;20160;-67
2022/01/18 10:13:03;;;;;;;9.10;4.18;;;;;;;;;;5003105;28;20069;-67
2022/01/18 10:15:29;;;;;;;10.02;4.25;;;;;;;;;;4998121;28;20041;-66
2022/01/18 10:18:10;;;;;;;9.73;4.70;;;;;;;;;;5003680;28;20052;-68
2022/01/18 10:20:53;;;;;;;11.20;4.45;;;;;;;;;;4999299;28;20030;-67
2022/01/18 10:23:24;;;;;;;11.48;4.53;;;;;;;;;;5003649;28;20108;-66
2022/01/18 10:25:51;;;;;;;9.98;5.18;;;;;;;;;;4990744;28;20064;-66
2022/01/18 10:28:32;;;;;;;10.50;4.70;;;;;;;;;;5000274;28;20052;-68
2022/01/18 10:31:06;;;;;;;10.85;5.22;;;;;;;;;;5008322;28;20051;-67
2022/01/18 10:33:46;;;;;;;12.43;6.30;;;;;;;;;;5005644;28;20034;-67
2022/01/18 10:36:15;;;;;;;11.95;6.78;;;;;;;;;;5005877;28;20041;-68
2022/01/18 10:38:45;;;;;;;14.20;8.13;;;;;;;;;;5002731;28;20038;-68
2022/01/18 10:41:30;;;;;;;13.68;7.30;;;;;;;;;;4987302;28;20128;-67
2022/01/18 10:44:14;;;;;;;15.00;7.82;;;;;;;;;;5005519;28;20037;-68
2022/01/18 10:46:55;;;;;;;13.82;8.00;;;;;;;;;;5000430;28;20033;-67
2022/01/18 10:49:46;;;;;;;14.10;6.93;;;;;;;;;;4997415;28;20034;-67
2022/01/18 10:52:18;;;;;;;11.88;5.93;;;;;;;;;;4998928;28;20052;-67
2022/01/18 10:54:51;;;;;;;10.77;5.20;;;;;;;;;;5007053;28;20017;-66
2022/01/18 10:57:21;;;;;;;11.25;5.97;;;;;;;;;;5001812;28;20036;-68
2022/01/18 10:59:50;;;;;;;11.57;6.40;;;;;;;;;;5000663;28;20088;-67
2022/01/18 11:02:20;;;;;;;11.55;6.22;;;;;;;;;;5002989;28;20278;-68
2022/01/18 11:04:49;;;;;;;11.27;5.68;;;;;;;;;;5005349;28;20034;-67
2022/01/18 11:07:22;;;;;;;11.02;5.65;;;;;;;;;;4998110;28;20029;-67
2022/01/18 11:09:50;;;;;;;10.95;4.85;;;;;;;;;;5001349;28;20052;-67
2022/01/18 11:12:27;;;;;;;12.02;5.15;;;;;;;;;;4994851;28;20034;-67
2022/01/18 11:15:07;;;;;;;10.35;4.88;;;;;;;;;;5004344;28;20107;-69
2022/01/18 11:17:50;;;;;;;10.63;4.32;;;;;;;;;;5000485;28;20032;-68
2022/01/18 11:20:20;;;;;;;8.48;3.80;;;;;;;;;;4999332;28;20614;-66
2022/01/18 11:22:52;;;;;;;8.68;3.60;;;;;;;;;;5003356;28;20072;-67
2022/01/18 11:25:19;;;;;;;10.00;4.43;;;;;;;;;;5001675;28;20045;-67
2022/01/18 11:27:52;;;;;;;9.18;4.43;;;;;;;;;;5001583;28;20030;-68
2022/01/18 11:30:20;;;;;;;12.02;4.68;;;;;;;;;;4996319;28;20029;-67
2022/01/18 11:32:59;;;;;;;9.57;4.53;;;;;;;;;;5005841;28;20136;-68
2022/01/18 11:35:47;;;;;;;11.27;4.97;;;;;;;;;;4999056;28;20595;-68
2022/01/18 11:38:32;;;;;;;8.98;4.50;;;;;;;;;;5000561;28;20510;-68
2022/01/18 11:41:02;;;;;;;9.27;4.28;;;;;;;;;;5003661;28;20026;-67
2022/01/18 11:43:45;;;;;;;11.75;5.30;;;;;;;;;;4997353;28;20033;-67
2022/01/18 11:46:40;;;;;;;9.18;4.38;;;;;;;;;;5000248;28;20033;-68
2022/01/18 11:49:08;;;;;;;10.38;4.43;;;;;;;;;;4984858;28;20037;-70
2022/01/18 11:51:43;;;;;;;8.80;3.80;;;;;;;;;;4997711;28;20902;-67
2022/01/18 11:54:29;;;;;;;8.05;3.55;;;;;;;;;;5005951;28;20061;-67
2022/01/18 11:57:03;;;;;;;7.90;3.58;;;;;;;;;;5002316;28;20030;-68
2022/01/18 11:59:40;;;;;;;9.25;4.32;;;;;;;;;;5003560;28;20036;-67
2022/01/18 12:02:08;;;;;;;8.73;3.30;;;;;;;;;;5002474;28;20046;-68
2022/01/18 12:04:53;;;;;;;8.30;3.60;;;;;;;;;;5003976;28;20042;-69
2022/01/18 12:07:42;;;;;;;7.47;3.03;;;;;;;;;;5006059;28;20144;-66
2022/01/18 12:10:27;;;;;;;8.75;3.58;;;;;;;;;;5007048;28;20500;-69
2022/01/18 12:12:59;;;;;;;8.65;3.88;;;;;;;;;;5007732;28;20098;-67
2022/01/18 12:15:39;;;;;;;8.02;3.55;;;;;;;;;;5003106;28;21289;-69
2022/01/18 12:18:19;;;;;;;8.38;3.45;;;;;;;;;;5009356;28;20234;-70
2022/01/18 12:20:50;;;;;;;8.00;3.40;;;;;;;;;;5002470;28;20067;-71
2022/01/18 12:23:26;;;;;;;10.13;3.70;;;;;;;;;;5002533;28;20041;-70
2022/01/18 12:26:10;;;;;;;8.43;3.70;;;;;;;;;;5012319;28;20033;-70
2022/01/18 12:34:31;;;;;;;7.18;2.83;;;;;;;;;;5008650;28;20057;-72
2022/01/18 12:37:13;;;;;;;9.02;3.10;;;;;;;;;;5006384;28;20504;-70
2022/01/18 12:40:05;;;;;;;6.82;2.80;;;;;;;;;;5006976;28;20581;-70
2022/01/18 12:45:19;;;;;;;10.95;6.35;;;;;;;;;;5003787;28;20037;-69
2022/01/18 12:47:55;;;;;;;7.43;3.22;;;;;;;;;;5005277;28;20103;-69
2022/01/18 12:50:29;;;;;;;6.07;2.20;;;;;;;;;;5003569;28;20076;-70
2022/01/18 12:53:07;;;;;;;7.43;2.70;;;;;;;;;;5007751;28;20124;-69
2022/01/18 12:55:54;;;;;;;8.45;2.80;;;;;;;;;;5005051;28;20113;-69
2022/01/18 12:58:34;;;;;;;7.22;2.10;;;;;;;;;;5003352;28;20075;-67
2022/01/18 13:01:07;;;;;;;6.80;2.60;;;;;;;;;;5006076;28;20052;-71
2022/01/18 13:03:50;;;;;;;7.82;2.88;;;;;;;;;;5002763;28;20037;-73
2022/01/18 13:06:18;;;;;;;8.40;3.13;;;;;;;;;;5002641;28;20534;-73
2022/01/18 13:08:57;;;;;;;7.07;3.13;;;;;;;;;;5007389;28;20132;-72
2022/01/18 13:11:32;;;;;;;6.25;2.55;;;;;;;;;;4997544;28;20457;-71
2022/01/18 13:14:07;;;;;;;8.50;3.67;;;;;;;;;;5004840;28;20030;-73
2022/01/18 13:27:25;;;;;;;9.13;2.50;;;;;;;;;;5006817;28;20037;-74
2022/01/18 13:30:23;;;;;;;7.57;2.97;;;;;;;;;;4999789;28;20136;-71
2022/01/18 13:32:50;;;;;;;6.95;3.00;;;;;;;;;;5006267;28;20050;-72
2022/01/18 13:35:19;;;;;;;7.75;3.00;;;;;;;;;;5002265;28;20692;-73
2022/01/18 13:37:46;;;;;;;8.23;3.28;;;;;;;;;;4989373;28;20029;-71
2022/01/18 13:40:15;;;;;;;8.18;3.53;;;;;;;;;;5004488;28;20039;-73
2022/01/18 13:42:44;;;;;;;8.98;3.85;;;;;;;;;;5009223;28;20037;-73
2022/01/18 13:45:19;;;;;;;6.90;2.70;;;;;;;;;;5004348;28;20243;-71
2022/01/18 13:48:02;;;;;;;6.57;2.53;;;;;;;;;;5002806;28;20120;-70
2022/01/18 13:50:29;;;;;;;6.93;2.90;;;;;;;;;;5001783;28;20044;-70
2022/01/18 13:53:09;;;;;;;8.52;3.35;;;;;;;;;;5005796;28;20029;-71
2022/01/18 13:55:40;;;;;;;6.28;2.33;;;;;;;;;;4991595;28;20612;-72
2022/01/18 13:58:07;;;;;;;8.13;2.97;;;;;;;;;;5004027;28;20049;-72
2022/01/18 14:00:36;;;;;;;5.80;2.28;;;;;;;;;;5001646;28;20033;-73
2022/01/18 14:03:05;;;;;;;6.38;2.25;;;;;;;;;;5002569;28;20040;-72
2022/01/18 14:05:32;;;;;;;7.85;3.00;;;;;;;;;;5002500;28;20067;-70
2022/01/18 14:08:11;;;;;;;7.70;2.88;;;;;;;;;;5002905;28;20800;-71
2022/01/18 14:10:37;;;;;;;7.85;2.78;;;;;;;;;;5002512;28;20045;-73
2022/01/18 14:13:05;;;;;;;6.35;2.47;;;;;;;;;;5004383;28;20041;-71
2022/01/18 14:15:42;;;;;;;8.25;3.40;;;;;;;;;;5002836;28;20088;-71
2022/01/18 14:18:08;;;;;;;7.28;2.70;;;;;;;;;;5004017;28;20052;-72
2022/01/18 14:20:35;;;;;;;7.82;3.13;;;;;;;;;;5002309;28;23045;-72
2022/01/18 14:23:01;;;;;;;8.88;3.95;;;;;;;;;;5002176;28;20044;-73
2022/01/18 14:25:31;;;;;;;7.38;3.20;;;;;;;;;;5004661;28;20029;-71
2022/01/18 14:28:08;;;;;;;9.02;3.47;;;;;;;;;;5005581;28;20033;-73
2022/01/18 14:30:35;;;;;;;8.23;3.53;;;;;;;;;;4998287;28;20057;-70
2022/01/18 14:33:04;;;;;;;9.20;3.00;;;;;;;;;;5004198;28;20553;-69
2022/01/18 14:35:31;;;;;;;8.63;3.60;;;;;;;;;;5005201;28;20080;-69
2022/01/18 14:38:06;;;;;;;8.38;3.78;;;;;;;;;;5007456;28;20021;-74
2022/01/18 14:40:48;;;;;;;8.20;2.88;;;;;;;;;;4998943;28;20061;-70
2022/01/18 14:43:29;;;;;;;7.03;2.90;;;;;;;;;;5000439;28;20030;-72
2022/01/18 14:46:03;;;;;;;7.13;2.58;;;;;;;;;;5004861;28;20044;-70
2022/01/18 14:48:34;;;;;;;7.32;3.20;;;;;;;;;;5001511;28;20022;-73
2022/01/18 14:51:00;;;;;;;7.15;3.15;;;;;;;;;;4999337;28;20041;-73
2022/01/18 14:53:27;;;;;;;11.10;3.42;;;;;;;;;;4999979;28;20030;-73
2022/01/18 14:55:55;;;;;;;7.10;2.88;;;;;;;;;;5006685;28;20421;-70
2022/01/18 14:58:24;;;;;;;10.40;4.60;;;;;;;;;;5000510;28;20095;-71
2022/01/18 15:00:54;;;;;;;8.65;3.28;;;;;;;;;;5004666;28;20064;-70
2022/01/18 15:03:22;;;;;;;8.20;3.40;;;;;;;;;;5003208;28;20033;-71
2022/01/18 15:05:50;;;;;;;8.60;3.35;;;;;;;;;;4987568;28;20113;-73
2022/01/18 15:08:19;;;;;;;7.32;2.88;;;;;;;;;;5001674;28;20036;-70
2022/01/18 15:10:45;;;;;;;7.50;3.03;;;;;;;;;;5002964;28;20069;-70
2022/01/18 15:13:12;;;;;;;7.90;3.30;;;;;;;;;;5004514;28;20530;-71
2022/01/18 15:15:39;;;;;;;8.55;3.60;;;;;;;;;;5001862;28;20492;-73
2022/01/18 15:18:07;;;;;;;7.63;2.83;;;;;;;;;;5000837;28;20047;-72
2022/01/18 15:20:37;;;;;;;7.53;3.53;;;;;;;;;;4999711;28;20029;-72
2022/01/18 15:23:04;;;;;;;7.05;2.60;;;;;;;;;;5001443;28;20049;-72
2022/01/18 15:25:32;;;;;;;5.88;2.30;;;;;;;;;;4998995;28;20037;-71
2022/01/18 15:28:00;;;;;;;7.65;3.00;;;;;;;;;;5002124;28;20029;-72
2022/01/18 15:30:29;;;;;;;7.93;2.88;;;;;;;;;;5001378;28;20759;-73
2022/01/18 15:32:56;;;;;;;9.23;4.35;;;;;;;;;;5002409;28;20087;-73
2022/01/18 15:35:25;;;;;;;8.30;3.10;;;;;;;;;;5003017;28;20040;-73
2022/01/18 15:37:52;;;;;;;8.30;2.97;;;;;;;;;;5002396;28;20801;-71
2022/01/18 15:40:18;;;;;;;7.80;3.20;;;;;;;;;;4998461;28;20048;-72
2022/01/18 15:42:45;;;;;;;7.30;2.92;;;;;;;;;;4999421;28;20075;-73
2022/01/18 15:45:13;;;;;;;7.57;2.88;;;;;;;;;;5006009;28;20033;-72
2022/01/18 15:47:41;;;;;;;6.93;2.58;;;;;;;;;;5001418;28;20033;-71
2022/01/18 15:50:10;;;;;;;8.20;3.05;;;;;;;;;;5003822;28;20029;-72
2022/01/18 15:52:36;;;;;;;9.10;3.47;;;;;;;;;;5001074;28;20029;-71
2022/01/18 15:55:04;;;;;;;9.10;4.03;;;;;;;;;;5002994;28;20076;-73
2022/01/18 15:57:30;;;;;;;9.85;3.75;;;;;;;;;;4999504;28;20021;-73
2022/01/18 15:59:57;;;;;;;7.32;2.60;;;;;;;;;;5002035;28;20021;-72
2022/01/18 16:02:26;;;;;;;7.03;2.50;;;;;;;;;;5004485;28;20033;-72
2022/01/18 16:04:57;;;;;;;7.85;2.70;;;;;;;;;;5001708;28;20048;-71
2022/01/18 16:07:24;;;;;;;7.90;3.22;;;;;;;;;;5001263;28;20056;-72
2022/01/18 16:09:51;;;;;;;7.30;3.10;;;;;;;;;;5005020;28;20631;-73
2022/01/18 16:12:18;;;;;;;9.88;3.85;;;;;;;;;;4999842;28;20068;-73
2022/01/18 16:14:45;;;;;;;8.90;3.90;;;;;;;;;;5001044;28;20026;-71
2022/01/18 16:17:13;;;;;;;11.52;5.00;;;;;;;;;;5004739;28;20038;-72
2022/01/18 16:19:46;;;;;;;10.88;4.93;;;;;;;;;;5000420;28;20040;-73
2022/01/18 16:22:12;;;;;;;9.95;5.25;;;;;;;;;;5001862;28;20068;-73
2022/01/18 16:24:41;;;;;;;10.85;5.05;;;;;;;;;;5003459;28;20163;-72
2022/01/18 16:27:09;;;;;;;11.88;6.65;;;;;;;;;;5007329;28;20590;-74
2022/01/18 16:29:36;;;;;;;9.20;4.22;;;;;;;;;;4998275;28;21425;-73
2022/01/18 16:32:05;;;;;;;14.20;7.38;;;;;;;;;;5003140;28;20041;-73
2022/01/18 16:34:32;;;;;;;11.18;4.93;;;;;;;;;;5000792;28;20030;-73
2022/01/18 16:36:59;;;;;;;11.00;5.22;;;;;;;;;;5004177;28;20040;-74
2022/01/18 16:39:26;;;;;;;13.38;6.70;;;;;;;;;;5000917;28;20489;-74
2022/01/18 16:41:54;;;;;;;16.98;9.98;;;;;;;;;;5002636;28;20127;-74
2022/01/18 16:44:25;;;;;;;11.90;5.93;;;;;;;;;;5001510;28;20124;-73
2022/01/18 16:46:51;;;;;;;9.15;4.20;;;;;;;;;;5005659;28;20060;-73
2022/01/18 16:49:18;;;;;;;10.63;4.68;;;;;;;;;;5002355;28;20037;-73